Huvudsida
METAR-TAF:

METAR-TAF

Flygplatser :

Visby Airport

Visby, Gotland, Sverige

latitud: 57-40N, longitud: 018-21E, höjd: 51 m

Aktuellt väderrapport

Denna rapport gjordes för 45 minuter sedan, klockan 11:50 UTC
Vind 22 kt från sydväst
Temperatur 10°C
Fuktighet 76%
Tryck 1018 hPa
Sikt 10 km eller mer
Spridda moln på en höjd av 1100 ft

METAR: ESSV 211150Z 22022KT 9999 SCT011 10/06 Q1018 R21/09//79

Tid: 13:35 (12:35 UTC)

Väderprognos

Denna rapport gjordes för 1 timme och 5 minuter sedan, klockan 11:30 UTC
Prognos gäller från 21 kl. 12 UTC till 21 kl. 21 UTC
Vind 22 kt från väst/sydväst
Sikt 10 km eller mer
Få moln på en höjd av 1500 ft

TAF: ESSV 211130Z 2112/2121 25022KT 9999 FEW015

Aktuella väderrapporter och prognoser från 4000 flygplatser (METAR- och TAF-rapporter).

De tillgängliga stationerna syns som gula och röda prickar på kartan.

För musen över prickarna för att se namnen på stationerna.

Klicka sedan för att få väderrapporter och prognoser.

För att ändra kartan: Klicka på de gröna knapparna med ett svart kors på för att zooma in; den gröna knappen med ett streck på för att zooma ut; eller på de gröna pilarna för angränsande kartor.


METAR-TAF: